Weather at General Mitchell International Airport

Public forecast

Using degrees Fahrenheit for public forecast. Weather courtesy of forecast.io.

Current aviation weather report (METAR) for General Mitchell International Airport

Retrieved 2021/07/27 08:52 UTC (23 minutes ago):

KMKE 270852Z 33008KT 10SM SCT150 25/17 A3004 RMK AO2 SLP165 T02500167 53009

Aviation forecast (TAF) for General Mitchell International Airport

Retrieved 2021/07/27 06:22 UTC (3 hours ago):

TAF KMKE 270520Z 2706/2812 24006KT P6SM FEW250 FM270800 25007KT P6SM SCT180 FM271200 28005KT P6SM BKN180 FM271800 24007KT P6SM FEW050 SCT250 FM280500 28005KT P6SM SCT120